sensor_id;sensor_type;location;lat;lon;timestamp;temperature;humidity
21163;DHT22;10739;52.198;20.908;2022-08-01T00:01:16;15.00;99.90
21163;DHT22;10739;52.198;20.908;2022-08-01T00:03:42;15.00;99.90
21163;DHT22;10739;52.198;20.908;2022-08-01T00:06:09;14.90;99.90
21163;DHT22;10739;52.198;20.908;2022-08-01T00:08:35;14.90;99.90
21163;DHT22;10739;52.198;20.908;2022-08-01T00:11:01;14.90;99.90
21163;DHT22;10739;52.198;20.908;2022-08-01T00:13:27;14.90;99.90
21163;DHT22;10739;52.198;20.908;2022-08-01T00:15:53;14.90;99.90
21163;DHT22;10739;52.198;20.908;2022-08-01T00:18:20;14.90;99.90
21163;DHT22;10739;52.198;20.908;2022-08-01T00:20:46;15.00;99.90
21163;DHT22;10739;52.198;20.908;2022-08-01T00:23:13;14.90;99.90
21163;DHT22;10739;52.198;20.908;2022-08-01T00:25:39;14.90;99.90
21163;DHT22;10739;52.198;20.908;2022-08-01T00:28:05;14.90;99.90
21163;DHT22;10739;52.198;20.908;2022-08-01T00:30:35;14.90;99.90
21163;DHT22;10739;52.198;20.908;2022-08-01T00:33:02;14.90;99.90
21163;DHT22;10739;52.198;20.908;2022-08-01T00:35:28;14.90;99.90
21163;DHT22;10739;52.198;20.908;2022-08-01T00:37:54;14.90;99.90
21163;DHT22;10739;52.198;20.908;2022-08-01T00:40:21;14.90;99.90
21163;DHT22;10739;52.198;20.908;2022-08-01T00:42:48;14.90;99.90
21163;DHT22;10739;52.198;20.908;2022-08-01T00:45:14;14.90;99.90
21163;DHT22;10739;52.198;20.908;2022-08-01T00:47:41;14.90;99.90
21163;DHT22;10739;52.198;20.908;2022-08-01T00:50:07;14.90;99.90
21163;DHT22;10739;52.198;20.908;2022-08-01T00:52:35;14.80;99.90
21163;DHT22;10739;52.198;20.908;2022-08-01T00:55:02;14.80;99.90
21163;DHT22;10739;52.198;20.908;2022-08-01T00:57:29;14.80;99.90
21163;DHT22;10739;52.198;20.908;2022-08-01T00:59:56;14.80;99.90
21163;DHT22;10739;52.198;20.908;2022-08-01T01:02:22;14.80;99.90
21163;DHT22;10739;52.198;20.908;2022-08-01T01:04:48;14.80;99.90
21163;DHT22;10739;52.198;20.908;2022-08-01T01:13:06;14.70;99.90
21163;DHT22;10739;52.198;20.908;2022-08-01T01:16:11;14.80;99.90
21163;DHT22;10739;52.198;20.908;2022-08-01T01:18:43;14.70;99.90
21163;DHT22;10739;52.198;20.908;2022-08-01T01:27:42;14.60;99.90
21163;DHT22;10739;52.198;20.908;2022-08-01T01:30:15;14.50;99.90
21163;DHT22;10739;52.198;20.908;2022-08-01T01:32:45;14.50;99.90
21163;DHT22;10739;52.198;20.908;2022-08-01T01:35:17;14.50;99.90
21163;DHT22;10739;52.198;20.908;2022-08-01T01:37:54;14.40;99.90
21163;DHT22;10739;52.198;20.908;2022-08-01T01:40:25;14.40;99.90
21163;DHT22;10739;52.198;20.908;2022-08-01T01:42:55;14.40;99.90
21163;DHT22;10739;52.198;20.908;2022-08-01T01:45:24;14.40;99.90
21163;DHT22;10739;52.198;20.908;2022-08-01T01:47:52;14.30;99.90
21163;DHT22;10739;52.198;20.908;2022-08-01T01:50:22;14.30;99.90
21163;DHT22;10739;52.198;20.908;2022-08-01T01:52:50;14.30;99.90
21163;DHT22;10739;52.198;20.908;2022-08-01T01:55:19;14.20;99.90
21163;DHT22;10739;52.198;20.908;2022-08-01T01:57:50;14.20;99.90
21163;DHT22;10739;52.198;20.908;2022-08-01T02:00:18;14.20;99.90
21163;DHT22;10739;52.198;20.908;2022-08-01T02:02:46;14.20;99.90
21163;DHT22;10739;52.198;20.908;2022-08-01T02:05:14;14.10;99.90
21163;DHT22;10739;52.198;20.908;2022-08-01T02:07:41;14.10;99.90
21163;DHT22;10739;52.198;20.908;2022-08-01T02:10:09;14.10;99.90
21163;DHT22;10739;52.198;20.908;2022-08-01T02:12:40;14.00;99.90
21163;DHT22;10739;52.198;20.908;2022-08-01T02:15:11;14.00;99.90
21163;DHT22;10739;52.198;20.908;2022-08-01T02:17:45;14.00;99.90
21163;DHT22;10739;52.198;20.908;2022-08-01T02:20:14;14.00;99.90
21163;DHT22;10739;52.198;20.908;2022-08-01T02:22:51;13.90;99.90
21163;DHT22;10739;52.198;20.908;2022-08-01T02:25:48;13.90;99.90
21163;DHT22;10739;52.198;20.908;2022-08-01T02:28:52;13.80;99.90
21163;DHT22;10739;52.198;20.908;2022-08-01T02:31:18;13.80;99.90
21163;DHT22;10739;52.198;20.908;2022-08-01T02:34:00;13.80;99.90
21163;DHT22;10739;52.198;20.908;2022-08-01T02:36:33;13.70;99.90
21163;DHT22;10739;52.198;20.908;2022-08-01T02:39:04;13.70;99.90
21163;DHT22;10739;52.198;20.908;2022-08-01T02:41:39;13.70;99.90
21163;DHT22;10739;52.198;20.908;2022-08-01T02:44:12;13.70;99.90
21163;DHT22;10739;52.198;20.908;2022-08-01T02:46:50;13.60;99.90
21163;DHT22;10739;52.198;20.908;2022-08-01T02:49:21;13.60;99.90
21163;DHT22;10739;52.198;20.908;2022-08-01T02:51:54;13.60;99.90
21163;DHT22;10739;52.198;20.908;2022-08-01T02:54:22;13.60;99.90
21163;DHT22;10739;52.198;20.908;2022-08-01T02:56:50;13.60;99.90
21163;DHT22;10739;52.198;20.908;2022-08-01T02:59:19;13.60;99.90
21163;DHT22;10739;52.198;20.908;2022-08-01T03:01:54;13.60;99.90
21163;DHT22;10739;52.198;20.908;2022-08-01T03:04:23;13.50;99.90
21163;DHT22;10739;52.198;20.908;2022-08-01T03:06:54;13.50;99.90
21163;DHT22;10739;52.198;20.908;2022-08-01T03:09:26;13.60;99.90
21163;DHT22;10739;52.198;20.908;2022-08-01T03:11:57;13.50;99.90
21163;DHT22;10739;52.198;20.908;2022-08-01T03:14:27;13.50;99.90
21163;DHT22;10739;52.198;20.908;2022-08-01T03:16:56;13.60;99.90
21163;DHT22;10739;52.198;20.908;2022-08-01T03:19:27;13.50;99.90
21163;DHT22;10739;52.198;20.908;2022-08-01T03:21:56;13.50;99.90
21163;DHT22;10739;52.198;20.908;2022-08-01T03:24:25;13.50;99.90
21163;DHT22;10739;52.198;20.908;2022-08-01T03:26:53;13.50;99.90
21163;DHT22;10739;52.198;20.908;2022-08-01T03:29:25;13.50;99.90
21163;DHT22;10739;52.198;20.908;2022-08-01T03:31:53;13.50;99.90
21163;DHT22;10739;52.198;20.908;2022-08-01T03:34:20;13.50;99.90
21163;DHT22;10739;52.198;20.908;2022-08-01T03:36:52;13.50;99.90
21163;DHT22;10739;52.198;20.908;2022-08-01T03:39:31;13.50;99.90
21163;DHT22;10739;52.198;20.908;2022-08-01T03:42:09;13.60;99.90
21163;DHT22;10739;52.198;20.908;2022-08-01T03:44:54;13.60;99.90
21163;DHT22;10739;52.198;20.908;2022-08-01T03:47:28;13.60;99.90
21163;DHT22;10739;52.198;20.908;2022-08-01T03:49:58;13.70;99.90
21163;DHT22;10739;52.198;20.908;2022-08-01T03:52:31;13.70;99.90
21163;DHT22;10739;52.198;20.908;2022-08-01T03:55:03;13.70;99.90
21163;DHT22;10739;52.198;20.908;2022-08-01T03:57:33;13.70;99.90
21163;DHT22;10739;52.198;20.908;2022-08-01T04:00:00;13.80;99.90
21163;DHT22;10739;52.198;20.908;2022-08-01T04:02:32;13.80;99.90
21163;DHT22;10739;52.198;20.908;2022-08-01T04:04:59;13.80;99.90
21163;DHT22;10739;52.198;20.908;2022-08-01T04:07:28;13.80;99.90
21163;DHT22;10739;52.198;20.908;2022-08-01T04:09:56;13.90;99.90
21163;DHT22;10739;52.198;20.908;2022-08-01T04:12:23;13.80;99.90
21163;DHT22;10739;52.198;20.908;2022-08-01T04:14:50;13.90;99.90
21163;DHT22;10739;52.198;20.908;2022-08-01T04:17:17;13.90;99.90
21163;DHT22;10739;52.198;20.908;2022-08-01T04:19:44;13.90;99.90
21163;DHT22;10739;52.198;20.908;2022-08-01T04:22:13;13.90;99.90
21163;DHT22;10739;52.198;20.908;2022-08-01T04:24:44;13.90;99.90
21163;DHT22;10739;52.198;20.908;2022-08-01T04:27:19;13.90;99.90
21163;DHT22;10739;52.198;20.908;2022-08-01T04:29:49;14.00;99.90
21163;DHT22;10739;52.198;20.908;2022-08-01T04:32:19;14.00;99.90
21163;DHT22;10739;52.198;20.908;2022-08-01T04:34:49;14.00;99.90
21163;DHT22;10739;52.198;20.908;2022-08-01T04:37:17;14.10;99.90
21163;DHT22;10739;52.198;20.908;2022-08-01T04:39:46;14.20;99.90
21163;DHT22;10739;52.198;20.908;2022-08-01T04:42:14;14.20;99.90
21163;DHT22;10739;52.198;20.908;2022-08-01T04:44:41;14.30;99.90
21163;DHT22;10739;52.198;20.908;2022-08-01T04:47:09;14.20;99.90
21163;DHT22;10739;52.198;20.908;2022-08-01T04:49:36;14.20;99.90
21163;DHT22;10739;52.198;20.908;2022-08-01T04:52:10;14.20;99.90
21163;DHT22;10739;52.198;20.908;2022-08-01T04:54:37;14.20;99.90
21163;DHT22;10739;52.198;20.908;2022-08-01T04:57:04;14.10;99.90
21163;DHT22;10739;52.198;20.908;2022-08-01T04:59:32;14.00;99.90
21163;DHT22;10739;52.198;20.908;2022-08-01T05:02:10;13.90;99.90
21163;DHT22;10739;52.198;20.908;2022-08-01T05:04:42;13.90;99.90
21163;DHT22;10739;52.198;20.908;2022-08-01T05:07:09;13.80;99.90
21163;DHT22;10739;52.198;20.908;2022-08-01T05:09:36;13.80;99.90
21163;DHT22;10739;52.198;20.908;2022-08-01T05:12:05;13.80;99.90
21163;DHT22;10739;52.198;20.908;2022-08-01T05:14:32;13.80;99.90
21163;DHT22;10739;52.198;20.908;2022-08-01T05:16:59;13.80;99.90
21163;DHT22;10739;52.198;20.908;2022-08-01T05:19:30;13.90;99.90
21163;DHT22;10739;52.198;20.908;2022-08-01T05:21:58;13.90;99.90
21163;DHT22;10739;52.198;20.908;2022-08-01T05:24:32;13.80;99.90
21163;DHT22;10739;52.198;20.908;2022-08-01T05:27:03;13.90;99.90
21163;DHT22;10739;52.198;20.908;2022-08-01T05:29:31;14.10;99.90
21163;DHT22;10739;52.198;20.908;2022-08-01T05:31:57;14.30;99.90
21163;DHT22;10739;52.198;20.908;2022-08-01T05:34:25;14.20;99.90
21163;DHT22;10739;52.198;20.908;2022-08-01T05:36:52;14.10;99.90
21163;DHT22;10739;52.198;20.908;2022-08-01T05:39:18;14.10;99.90
21163;DHT22;10739;52.198;20.908;2022-08-01T05:41:44;14.20;99.90
21163;DHT22;10739;52.198;20.908;2022-08-01T05:44:11;14.00;99.90
21163;DHT22;10739;52.198;20.908;2022-08-01T05:46:38;14.00;99.90
21163;DHT22;10739;52.198;20.908;2022-08-01T05:49:04;14.10;99.90
21163;DHT22;10739;52.198;20.908;2022-08-01T05:51:31;14.00;99.90
21163;DHT22;10739;52.198;20.908;2022-08-01T05:53:58;14.10;99.90
21163;DHT22;10739;52.198;20.908;2022-08-01T05:56:25;14.00;99.90
21163;DHT22;10739;52.198;20.908;2022-08-01T05:58:51;14.10;99.90
21163;DHT22;10739;52.198;20.908;2022-08-01T06:01:18;14.20;99.90
21163;DHT22;10739;52.198;20.908;2022-08-01T06:03:45;14.30;99.90
21163;DHT22;10739;52.198;20.908;2022-08-01T06:06:12;14.30;99.90
21163;DHT22;10739;52.198;20.908;2022-08-01T06:08:40;14.40;99.90
21163;DHT22;10739;52.198;20.908;2022-08-01T06:11:07;14.50;99.90
21163;DHT22;10739;52.198;20.908;2022-08-01T06:13:33;14.60;99.90
21163;DHT22;10739;52.198;20.908;2022-08-01T06:15:59;14.70;99.90
21163;DHT22;10739;52.198;20.908;2022-08-01T06:18:26;14.80;99.90
21163;DHT22;10739;52.198;20.908;2022-08-01T06:20:52;15.00;99.90
21163;DHT22;10739;52.198;20.908;2022-08-01T06:23:20;15.20;99.90
21163;DHT22;10739;52.198;20.908;2022-08-01T06:25:47;15.40;99.90
21163;DHT22;10739;52.198;20.908;2022-08-01T06:28:13;15.50;99.90
21163;DHT22;10739;52.198;20.908;2022-08-01T06:30:40;15.70;99.90
21163;DHT22;10739;52.198;20.908;2022-08-01T06:33:06;15.80;99.90
21163;DHT22;10739;52.198;20.908;2022-08-01T06:35:32;15.90;99.90
21163;DHT22;10739;52.198;20.908;2022-08-01T06:37:58;16.00;99.90
21163;DHT22;10739;52.198;20.908;2022-08-01T06:40:24;16.00;99.90
21163;DHT22;10739;52.198;20.908;2022-08-01T06:42:51;16.10;99.90
21163;DHT22;10739;52.198;20.908;2022-08-01T06:45:17;16.20;99.90
21163;DHT22;10739;52.198;20.908;2022-08-01T06:47:44;16.50;99.90
21163;DHT22;10739;52.198;20.908;2022-08-01T06:50:11;16.50;99.90
21163;DHT22;10739;52.198;20.908;2022-08-01T06:52:40;16.50;99.90
21163;DHT22;10739;52.198;20.908;2022-08-01T06:55:07;16.50;99.90
21163;DHT22;10739;52.198;20.908;2022-08-01T06:57:34;16.60;99.90
21163;DHT22;10739;52.198;20.908;2022-08-01T07:00:05;16.70;99.90
21163;DHT22;10739;52.198;20.908;2022-08-01T07:02:34;16.80;99.90
21163;DHT22;10739;52.198;20.908;2022-08-01T07:05:03;17.00;99.90
21163;DHT22;10739;52.198;20.908;2022-08-01T07:07:30;17.10;99.90
21163;DHT22;10739;52.198;20.908;2022-08-01T07:09:56;17.00;99.90
21163;DHT22;10739;52.198;20.908;2022-08-01T07:12:23;17.20;99.90
21163;DHT22;10739;52.198;20.908;2022-08-01T07:14:49;17.20;99.90
21163;DHT22;10739;52.198;20.908;2022-08-01T07:17:15;17.30;99.90
21163;DHT22;10739;52.198;20.908;2022-08-01T07:19:41;17.50;99.90
21163;DHT22;10739;52.198;20.908;2022-08-01T07:22:08;17.70;99.90
21163;DHT22;10739;52.198;20.908;2022-08-01T07:24:34;18.00;99.90
21163;DHT22;10739;52.198;20.908;2022-08-01T07:27:00;18.20;99.90
21163;DHT22;10739;52.198;20.908;2022-08-01T07:29:27;18.30;99.90
21163;DHT22;10739;52.198;20.908;2022-08-01T07:31:54;18.30;99.90
21163;DHT22;10739;52.198;20.908;2022-08-01T07:34:22;18.40;99.90
21163;DHT22;10739;52.198;20.908;2022-08-01T07:36:49;18.50;99.90
21163;DHT22;10739;52.198;20.908;2022-08-01T07:39:15;18.70;99.90
21163;DHT22;10739;52.198;20.908;2022-08-01T07:41:42;19.00;99.90
21163;DHT22;10739;52.198;20.908;2022-08-01T07:44:08;19.30;99.90
21163;DHT22;10739;52.198;20.908;2022-08-01T07:46:34;19.30;99.90
21163;DHT22;10739;52.198;20.908;2022-08-01T07:49:01;19.30;99.90
21163;DHT22;10739;52.198;20.908;2022-08-01T07:51:27;19.30;99.90
21163;DHT22;10739;52.198;20.908;2022-08-01T07:53:53;19.50;99.90
21163;DHT22;10739;52.198;20.908;2022-08-01T07:56:19;19.60;99.90
21163;DHT22;10739;52.198;20.908;2022-08-01T07:58:45;19.30;99.90
21163;DHT22;10739;52.198;20.908;2022-08-01T08:01:13;19.20;99.90
21163;DHT22;10739;52.198;20.908;2022-08-01T08:03:40;19.40;99.90
21163;DHT22;10739;52.198;20.908;2022-08-01T08:06:06;19.80;99.90
21163;DHT22;10739;52.198;20.908;2022-08-01T08:08:32;20.00;99.90
21163;DHT22;10739;52.198;20.908;2022-08-01T08:11:00;20.10;99.90
21163;DHT22;10739;52.198;20.908;2022-08-01T08:13:27;20.20;99.90
21163;DHT22;10739;52.198;20.908;2022-08-01T08:15:53;20.20;99.90
21163;DHT22;10739;52.198;20.908;2022-08-01T08:18:20;20.40;99.90
21163;DHT22;10739;52.198;20.908;2022-08-01T08:20:46;20.40;99.90
21163;DHT22;10739;52.198;20.908;2022-08-01T08:23:12;20.20;99.90
21163;DHT22;10739;52.198;20.908;2022-08-01T08:25:57;20.40;99.90
21163;DHT22;10739;52.198;20.908;2022-08-01T08:28:24;20.80;99.90
21163;DHT22;10739;52.198;20.908;2022-08-01T08:30:50;20.60;99.90
21163;DHT22;10739;52.198;20.908;2022-08-01T08:33:16;20.50;99.90
21163;DHT22;10739;52.198;20.908;2022-08-01T08:35:42;20.90;99.90
21163;DHT22;10739;52.198;20.908;2022-08-01T08:38:09;21.00;99.90
21163;DHT22;10739;52.198;20.908;2022-08-01T08:40:36;20.70;99.90
21163;DHT22;10739;52.198;20.908;2022-08-01T08:43:04;20.90;99.90
21163;DHT22;10739;52.198;20.908;2022-08-01T08:45:32;21.00;99.90
21163;DHT22;10739;52.198;20.908;2022-08-01T08:47:59;21.30;99.90
21163;DHT22;10739;52.198;20.908;2022-08-01T08:50:27;21.30;99.90
21163;DHT22;10739;52.198;20.908;2022-08-01T08:52:55;21.60;99.90
21163;DHT22;10739;52.198;20.908;2022-08-01T08:55:22;21.70;99.90
21163;DHT22;10739;52.198;20.908;2022-08-01T08:57:50;22.00;99.90
21163;DHT22;10739;52.198;20.908;2022-08-01T09:00:18;21.50;99.90
21163;DHT22;10739;52.198;20.908;2022-08-01T09:02:46;21.40;99.90
21163;DHT22;10739;52.198;20.908;2022-08-01T09:05:23;21.70;99.90
21163;DHT22;10739;52.198;20.908;2022-08-01T09:07:53;22.00;99.90
21163;DHT22;10739;52.198;20.908;2022-08-01T09:10:19;22.30;99.90
21163;DHT22;10739;52.198;20.908;2022-08-01T09:13:08;22.40;99.90
21163;DHT22;10739;52.198;20.908;2022-08-01T09:18:36;22.60;99.90
21163;DHT22;10739;52.198;20.908;2022-08-01T09:21:10;22.90;99.90
21163;DHT22;10739;52.198;20.908;2022-08-01T09:26:16;23.30;99.90
21163;DHT22;10739;52.198;20.908;2022-08-01T09:28:49;23.10;99.90
21163;DHT22;10739;52.198;20.908;2022-08-01T09:31:17;23.60;99.90
21163;DHT22;10739;52.198;20.908;2022-08-01T09:36:21;24.00;99.90
21163;DHT22;10739;52.198;20.908;2022-08-01T09:38:53;24.00;99.90
21163;DHT22;10739;52.198;20.908;2022-08-01T09:41:46;23.70;99.90
21163;DHT22;10739;52.198;20.908;2022-08-01T09:44:14;24.10;99.90
21163;DHT22;10739;52.198;20.908;2022-08-01T09:46:53;24.40;99.90
21163;DHT22;10739;52.198;20.908;2022-08-01T09:49:28;24.20;99.90
21163;DHT22;10739;52.198;20.908;2022-08-01T09:52:18;24.50;99.90
21163;DHT22;10739;52.198;20.908;2022-08-01T09:54:57;25.20;99.90
21163;DHT22;10739;52.198;20.908;2022-08-01T09:57:29;25.20;99.90
21163;DHT22;10739;52.198;20.908;2022-08-01T09:59:57;26.20;99.90
21163;DHT22;10739;52.198;20.908;2022-08-01T10:02:36;26.00;99.90
21163;DHT22;10739;52.198;20.908;2022-08-01T10:05:06;25.90;99.90
21163;DHT22;10739;52.198;20.908;2022-08-01T10:07:35;27.10;99.90
21163;DHT22;10739;52.198;20.908;2022-08-01T10:10:20;28.10;99.90
21163;DHT22;10739;52.198;20.908;2022-08-01T10:12:47;28.50;99.90
21163;DHT22;10739;52.198;20.908;2022-08-01T10:15:16;29.10;99.90
21163;DHT22;10739;52.198;20.908;2022-08-01T10:17:54;29.80;99.90
21163;DHT22;10739;52.198;20.908;2022-08-01T10:21:03;28.80;99.90
21163;DHT22;10739;52.198;20.908;2022-08-01T10:23:34;29.00;99.90
21163;DHT22;10739;52.198;20.908;2022-08-01T10:26:02;28.60;99.90
21163;DHT22;10739;52.198;20.908;2022-08-01T10:28:31;28.30;99.90
21163;DHT22;10739;52.198;20.908;2022-08-01T10:31:01;28.30;99.90
21163;DHT22;10739;52.198;20.908;2022-08-01T10:33:29;29.30;99.90
21163;DHT22;10739;52.198;20.908;2022-08-01T10:35:57;28.10;99.90
21163;DHT22;10739;52.198;20.908;2022-08-01T10:38:24;28.00;99.90
21163;DHT22;10739;52.198;20.908;2022-08-01T10:40:54;27.60;99.90
21163;DHT22;10739;52.198;20.908;2022-08-01T10:43:22;27.90;99.90
21163;DHT22;10739;52.198;20.908;2022-08-01T10:45:49;27.90;99.90
21163;DHT22;10739;52.198;20.908;2022-08-01T10:51:06;27.00;99.90
21163;DHT22;10739;52.198;20.908;2022-08-01T10:53:33;26.60;99.90
21163;DHT22;10739;52.198;20.908;2022-08-01T10:56:02;27.20;99.90
21163;DHT22;10739;52.198;20.908;2022-08-01T10:58:37;28.40;99.90
21163;DHT22;10739;52.198;20.908;2022-08-01T11:04:10;29.10;99.90
21163;DHT22;10739;52.198;20.908;2022-08-01T11:06:46;28.30;99.90
21163;DHT22;10739;52.198;20.908;2022-08-01T11:09:24;28.40;99.90
21163;DHT22;10739;52.198;20.908;2022-08-01T11:17:34;30.00;99.90
21163;DHT22;10739;52.198;20.908;2022-08-01T11:20:05;30.10;99.90
21163;DHT22;10739;52.198;20.908;2022-08-01T11:30:41;31.00;99.90
21163;DHT22;10739;52.198;20.908;2022-08-01T11:33:07;31.00;99.90
21163;DHT22;10739;52.198;20.908;2022-08-01T11:35:35;31.20;99.90
21163;DHT22;10739;52.198;20.908;2022-08-01T11:38:27;30.20;99.90
21163;DHT22;10739;52.198;20.908;2022-08-01T11:41:15;30.90;99.90
21163;DHT22;10739;52.198;20.908;2022-08-01T11:44:04;31.60;99.90
21163;DHT22;10739;52.198;20.908;2022-08-01T11:52:05;29.80;99.70
21163;DHT22;10739;52.198;20.908;2022-08-01T11:54:38;30.90;98.30
21163;DHT22;10739;52.198;20.908;2022-08-01T11:57:24;31.70;97.50
21163;DHT22;10739;52.198;20.908;2022-08-01T11:59:58;31.70;96.30
21163;DHT22;10739;52.198;20.908;2022-08-01T12:02:30;32.30;95.60
21163;DHT22;10739;52.198;20.908;2022-08-01T12:05:00;32.60;95.80
21163;DHT22;10739;52.198;20.908;2022-08-01T12:07:41;33.00;94.10
21163;DHT22;10739;52.198;20.908;2022-08-01T12:10:17;32.20;93.50
21163;DHT22;10739;52.198;20.908;2022-08-01T12:12:49;31.60;93.40
21163;DHT22;10739;52.198;20.908;2022-08-01T12:15:19;31.30;95.20
21163;DHT22;10739;52.198;20.908;2022-08-01T12:17:50;30.70;94.00
21163;DHT22;10739;52.198;20.908;2022-08-01T12:20:29;29.80;96.70
21163;DHT22;10739;52.198;20.908;2022-08-01T12:22:59;29.80;97.30
21163;DHT22;10739;52.198;20.908;2022-08-01T12:25:27;30.10;98.10
21163;DHT22;10739;52.198;20.908;2022-08-01T12:27:54;30.50;96.30
21163;DHT22;10739;52.198;20.908;2022-08-01T12:30:23;30.90;95.40
21163;DHT22;10739;52.198;20.908;2022-08-01T12:32:51;31.10;95.40
21163;DHT22;10739;52.198;20.908;2022-08-01T12:35:21;31.90;95.80
21163;DHT22;10739;52.198;20.908;2022-08-01T12:37:51;32.60;94.30
21163;DHT22;10739;52.198;20.908;2022-08-01T12:40:22;31.50;93.20
21163;DHT22;10739;52.198;20.908;2022-08-01T12:42:52;31.10;94.00
21163;DHT22;10739;52.198;20.908;2022-08-01T12:45:43;30.50;94.10
21163;DHT22;10739;52.198;20.908;2022-08-01T12:48:11;30.90;94.00
21163;DHT22;10739;52.198;20.908;2022-08-01T12:50:48;31.30;94.30
21163;DHT22;10739;52.198;20.908;2022-08-01T12:53:16;31.40;93.70
21163;DHT22;10739;52.198;20.908;2022-08-01T12:55:54;30.70;93.70
21163;DHT22;10739;52.198;20.908;2022-08-01T12:58:21;30.70;94.40
21163;DHT22;10739;52.198;20.908;2022-08-01T13:00:50;29.90;94.60
21163;DHT22;10739;52.198;20.908;2022-08-01T13:03:27;30.70;94.60
21163;DHT22;10739;52.198;20.908;2022-08-01T13:05:57;31.30;93.70
21163;DHT22;10739;52.198;20.908;2022-08-01T13:08:34;31.60;93.30
21163;DHT22;10739;52.198;20.908;2022-08-01T13:13:45;31.60;91.90
21163;DHT22;10739;52.198;20.908;2022-08-01T13:16:16;31.40;92.60
21163;DHT22;10739;52.198;20.908;2022-08-01T13:18:51;31.50;92.80
21163;DHT22;10739;52.198;20.908;2022-08-01T13:21:29;32.10;92.90
21163;DHT22;10739;52.198;20.908;2022-08-01T13:24:10;32.80;92.40
21163;DHT22;10739;52.198;20.908;2022-08-01T13:26:52;33.50;90.10
21163;DHT22;10739;52.198;20.908;2022-08-01T13:29:40;33.40;90.10
21163;DHT22;10739;52.198;20.908;2022-08-01T13:32:19;33.10;90.20
21163;DHT22;10739;52.198;20.908;2022-08-01T13:34:46;33.20;88.70
21163;DHT22;10739;52.198;20.908;2022-08-01T13:37:13;33.10;87.90
21163;DHT22;10739;52.198;20.908;2022-08-01T13:39:43;33.20;88.90
21163;DHT22;10739;52.198;20.908;2022-08-01T13:42:18;33.40;88.60
21163;DHT22;10739;52.198;20.908;2022-08-01T13:44:45;33.20;87.40
21163;DHT22;10739;52.198;20.908;2022-08-01T13:47:11;33.30;87.50
21163;DHT22;10739;52.198;20.908;2022-08-01T13:49:38;33.30;86.70
21163;DHT22;10739;52.198;20.908;2022-08-01T13:52:05;33.80;85.20
21163;DHT22;10739;52.198;20.908;2022-08-01T13:54:34;33.50;85.50
21163;DHT22;10739;52.198;20.908;2022-08-01T13:57:00;32.80;89.30
21163;DHT22;10739;52.198;20.908;2022-08-01T13:59:26;33.10;87.80
21163;DHT22;10739;52.198;20.908;2022-08-01T14:01:52;32.60;87.50
21163;DHT22;10739;52.198;20.908;2022-08-01T14:04:19;32.50;88.30
21163;DHT22;10739;52.198;20.908;2022-08-01T14:06:47;32.70;87.80
21163;DHT22;10739;52.198;20.908;2022-08-01T14:09:13;32.40;87.20
21163;DHT22;10739;52.198;20.908;2022-08-01T14:11:43;32.30;90.00
21163;DHT22;10739;52.198;20.908;2022-08-01T14:14:09;32.40;88.70
21163;DHT22;10739;52.198;20.908;2022-08-01T14:16:35;33.00;87.80
21163;DHT22;10739;52.198;20.908;2022-08-01T14:19:03;33.40;85.90
21163;DHT22;10739;52.198;20.908;2022-08-01T14:21:29;33.20;86.50
21163;DHT22;10739;52.198;20.908;2022-08-01T14:23:57;32.70;86.30
21163;DHT22;10739;52.198;20.908;2022-08-01T14:26:23;32.30;87.20
21163;DHT22;10739;52.198;20.908;2022-08-01T14:28:49;31.80;91.00
21163;DHT22;10739;52.198;20.908;2022-08-01T14:31:15;31.10;88.20
21163;DHT22;10739;52.198;20.908;2022-08-01T14:33:41;29.60;91.00
21163;DHT22;10739;52.198;20.908;2022-08-01T14:36:07;29.10;91.80
21163;DHT22;10739;52.198;20.908;2022-08-01T14:38:33;28.90;92.10
21163;DHT22;10739;52.198;20.908;2022-08-01T14:41:00;28.90;92.40
21163;DHT22;10739;52.198;20.908;2022-08-01T14:43:29;28.70;92.30
21163;DHT22;10739;52.198;20.908;2022-08-01T14:45:57;28.10;93.20
21163;DHT22;10739;52.198;20.908;2022-08-01T14:48:23;28.10;94.20
21163;DHT22;10739;52.198;20.908;2022-08-01T14:50:50;27.90;95.20
21163;DHT22;10739;52.198;20.908;2022-08-01T14:53:16;28.80;95.60
21163;DHT22;10739;52.198;20.908;2022-08-01T14:55:43;29.80;92.50
21163;DHT22;10739;52.198;20.908;2022-08-01T14:58:09;30.20;92.00
21163;DHT22;10739;52.198;20.908;2022-08-01T15:00:35;30.80;92.20
21163;DHT22;10739;52.198;20.908;2022-08-01T15:03:02;31.00;91.70
21163;DHT22;10739;52.198;20.908;2022-08-01T15:05:28;30.20;91.50
21163;DHT22;10739;52.198;20.908;2022-08-01T15:07:54;30.10;91.60
21163;DHT22;10739;52.198;20.908;2022-08-01T15:10:20;29.80;92.00
21163;DHT22;10739;52.198;20.908;2022-08-01T15:12:48;29.30;92.80
21163;DHT22;10739;52.198;20.908;2022-08-01T15:15:14;29.20;94.10
21163;DHT22;10739;52.198;20.908;2022-08-01T15:17:40;29.20;94.50
21163;DHT22;10739;52.198;20.908;2022-08-01T15:20:07;28.80;94.70
21163;DHT22;10739;52.198;20.908;2022-08-01T15:22:35;27.80;96.10
21163;DHT22;10739;52.198;20.908;2022-08-01T15:25:02;27.60;97.40
21163;DHT22;10739;52.198;20.908;2022-08-01T15:27:29;27.10;97.60
21163;DHT22;10739;52.198;20.908;2022-08-01T15:29:55;27.00;98.60
21163;DHT22;10739;52.198;20.908;2022-08-01T15:32:22;26.80;99.50
21163;DHT22;10739;52.198;20.908;2022-08-01T15:34:49;26.40;99.90
21163;DHT22;10739;52.198;20.908;2022-08-01T15:37:16;26.30;99.90
21163;DHT22;10739;52.198;20.908;2022-08-01T15:39:42;26.30;99.90
21163;DHT22;10739;52.198;20.908;2022-08-01T15:42:10;26.20;99.90
21163;DHT22;10739;52.198;20.908;2022-08-01T15:44:38;26.30;99.90
21163;DHT22;10739;52.198;20.908;2022-08-01T15:47:05;26.20;99.90
21163;DHT22;10739;52.198;20.908;2022-08-01T15:49:33;25.70;99.90
21163;DHT22;10739;52.198;20.908;2022-08-01T15:52:03;25.50;99.90
21163;DHT22;10739;52.198;20.908;2022-08-01T15:54:30;25.50;99.90
21163;DHT22;10739;52.198;20.908;2022-08-01T15:56:56;25.50;99.90
21163;DHT22;10739;52.198;20.908;2022-08-01T15:59:22;25.50;99.90
21163;DHT22;10739;52.198;20.908;2022-08-01T16:01:49;25.50;99.90
21163;DHT22;10739;52.198;20.908;2022-08-01T16:04:15;25.40;99.90
21163;DHT22;10739;52.198;20.908;2022-08-01T16:06:42;25.30;99.90
21163;DHT22;10739;52.198;20.908;2022-08-01T16:09:08;25.10;99.90
21163;DHT22;10739;52.198;20.908;2022-08-01T16:11:35;25.00;99.90
21163;DHT22;10739;52.198;20.908;2022-08-01T16:14:01;25.00;99.90
21163;DHT22;10739;52.198;20.908;2022-08-01T16:16:27;24.80;99.90
21163;DHT22;10739;52.198;20.908;2022-08-01T16:18:54;24.80;99.90